sensor_id;sensor_type;location;lat;lon;timestamp;P1;durP1;ratioP1;P2;durP2;ratioP2
37299;SDS011;23184;51.902;12.836;2022-11-20T00:01:14;15.90;;;7.57;;
37299;SDS011;23184;51.902;12.836;2022-11-20T00:03:45;15.23;;;7.30;;
37299;SDS011;23184;51.902;12.836;2022-11-20T00:06:12;14.77;;;7.47;;
37299;SDS011;23184;51.902;12.836;2022-11-20T00:08:40;15.20;;;7.30;;
37299;SDS011;23184;51.902;12.836;2022-11-20T00:11:06;15.02;;;7.57;;
37299;SDS011;23184;51.902;12.836;2022-11-20T00:13:33;13.80;;;7.00;;
37299;SDS011;23184;51.902;12.836;2022-11-20T00:15:59;12.30;;;7.00;;
37299;SDS011;23184;51.902;12.836;2022-11-20T00:18:27;13.25;;;7.05;;
37299;SDS011;23184;51.902;12.836;2022-11-20T00:20:53;14.88;;;6.80;;
37299;SDS011;23184;51.902;12.836;2022-11-20T00:23:19;14.65;;;7.72;;
37299;SDS011;23184;51.902;12.836;2022-11-20T00:25:44;15.23;;;6.75;;
37299;SDS011;23184;51.902;12.836;2022-11-20T00:28:10;15.23;;;7.75;;
37299;SDS011;23184;51.902;12.836;2022-11-20T00:30:36;15.13;;;8.00;;
37299;SDS011;23184;51.902;12.836;2022-11-20T00:33:01;13.82;;;6.95;;
37299;SDS011;23184;51.902;12.836;2022-11-20T00:35:27;14.55;;;8.07;;
37299;SDS011;23184;51.902;12.836;2022-11-20T00:37:52;12.88;;;7.25;;
37299;SDS011;23184;51.902;12.836;2022-11-20T00:40:18;13.60;;;6.32;;
37299;SDS011;23184;51.902;12.836;2022-11-20T00:42:43;13.90;;;7.50;;
37299;SDS011;23184;51.902;12.836;2022-11-20T00:45:09;11.02;;;7.00;;
37299;SDS011;23184;51.902;12.836;2022-11-20T00:47:34;14.23;;;7.32;;
37299;SDS011;23184;51.902;12.836;2022-11-20T00:50:00;14.32;;;7.75;;
37299;SDS011;23184;51.902;12.836;2022-11-20T00:52:25;14.10;;;7.50;;
37299;SDS011;23184;51.902;12.836;2022-11-20T00:54:51;13.98;;;7.00;;
37299;SDS011;23184;51.902;12.836;2022-11-20T00:57:16;15.30;;;7.30;;
37299;SDS011;23184;51.902;12.836;2022-11-20T00:59:42;13.27;;;7.50;;
37299;SDS011;23184;51.902;12.836;2022-11-20T01:02:08;15.15;;;7.15;;
37299;SDS011;23184;51.902;12.836;2022-11-20T01:04:33;13.40;;;7.70;;
37299;SDS011;23184;51.902;12.836;2022-11-20T01:06:59;15.60;;;8.23;;
37299;SDS011;23184;51.902;12.836;2022-11-20T01:09:24;16.33;;;7.75;;
37299;SDS011;23184;51.902;12.836;2022-11-20T01:11:50;17.50;;;7.30;;
37299;SDS011;23184;51.902;12.836;2022-11-20T01:14:17;14.95;;;8.05;;
37299;SDS011;23184;51.902;12.836;2022-11-20T01:16:45;14.93;;;7.00;;
37299;SDS011;23184;51.902;12.836;2022-11-20T01:19:17;18.60;;;7.53;;
37299;SDS011;23184;51.902;12.836;2022-11-20T01:21:45;16.88;;;8.40;;
37299;SDS011;23184;51.902;12.836;2022-11-20T01:24:14;13.85;;;7.82;;
37299;SDS011;23184;51.902;12.836;2022-11-20T01:26:42;15.75;;;8.27;;
37299;SDS011;23184;51.902;12.836;2022-11-20T01:29:12;14.30;;;7.85;;
37299;SDS011;23184;51.902;12.836;2022-11-20T01:31:40;14.60;;;8.50;;
37299;SDS011;23184;51.902;12.836;2022-11-20T01:34:09;15.95;;;8.27;;
37299;SDS011;23184;51.902;12.836;2022-11-20T01:36:36;13.82;;;7.30;;
37299;SDS011;23184;51.902;12.836;2022-11-20T01:39:04;15.30;;;8.38;;
37299;SDS011;23184;51.902;12.836;2022-11-20T01:41:41;16.23;;;8.18;;
37299;SDS011;23184;51.902;12.836;2022-11-20T01:47:13;16.60;;;8.50;;
37299;SDS011;23184;51.902;12.836;2022-11-20T01:49:42;15.77;;;7.82;;
37299;SDS011;23184;51.902;12.836;2022-11-20T01:52:18;16.73;;;9.15;;
37299;SDS011;23184;51.902;12.836;2022-11-20T01:57:44;17.80;;;8.55;;
37299;SDS011;23184;51.902;12.836;2022-11-20T02:00:12;17.52;;;9.18;;
37299;SDS011;23184;51.902;12.836;2022-11-20T02:02:40;14.80;;;8.10;;
37299;SDS011;23184;51.902;12.836;2022-11-20T02:07:50;15.90;;;8.32;;
37299;SDS011;23184;51.902;12.836;2022-11-20T02:10:17;15.63;;;8.20;;
37299;SDS011;23184;51.902;12.836;2022-11-20T02:12:43;14.95;;;7.55;;
37299;SDS011;23184;51.902;12.836;2022-11-20T02:15:27;15.55;;;8.05;;
37299;SDS011;23184;51.902;12.836;2022-11-20T02:17:53;17.42;;;8.27;;
37299;SDS011;23184;51.902;12.836;2022-11-20T02:20:19;17.25;;;8.52;;
37299;SDS011;23184;51.902;12.836;2022-11-20T02:22:48;17.50;;;8.95;;
37299;SDS011;23184;51.902;12.836;2022-11-20T02:25:21;17.00;;;8.90;;
37299;SDS011;23184;51.902;12.836;2022-11-20T02:27:47;17.52;;;7.97;;
37299;SDS011;23184;51.902;12.836;2022-11-20T02:30:13;18.90;;;8.63;;
37299;SDS011;23184;51.902;12.836;2022-11-20T02:32:39;15.65;;;7.95;;
37299;SDS011;23184;51.902;12.836;2022-11-20T02:35:08;15.50;;;7.90;;
37299;SDS011;23184;51.902;12.836;2022-11-20T02:37:55;17.00;;;8.48;;
37299;SDS011;23184;51.902;12.836;2022-11-20T02:40:23;19.08;;;8.82;;
37299;SDS011;23184;51.902;12.836;2022-11-20T02:42:52;12.50;;;7.10;;
37299;SDS011;23184;51.902;12.836;2022-11-20T02:45:18;18.27;;;9.77;;
37299;SDS011;23184;51.902;12.836;2022-11-20T02:47:44;15.50;;;7.68;;
37299;SDS011;23184;51.902;12.836;2022-11-20T02:50:09;19.30;;;9.23;;
37299;SDS011;23184;51.902;12.836;2022-11-20T02:52:35;16.38;;;8.63;;
37299;SDS011;23184;51.902;12.836;2022-11-20T02:55:01;16.45;;;7.85;;
37299;SDS011;23184;51.902;12.836;2022-11-20T02:57:26;18.15;;;8.70;;
37299;SDS011;23184;51.902;12.836;2022-11-20T02:59:52;19.42;;;9.80;;
37299;SDS011;23184;51.902;12.836;2022-11-20T03:02:18;17.90;;;9.55;;
37299;SDS011;23184;51.902;12.836;2022-11-20T03:04:44;22.40;;;9.43;;
37299;SDS011;23184;51.902;12.836;2022-11-20T03:07:09;19.67;;;9.88;;
37299;SDS011;23184;51.902;12.836;2022-11-20T03:09:35;18.60;;;8.95;;
37299;SDS011;23184;51.902;12.836;2022-11-20T03:12:01;15.95;;;8.57;;
37299;SDS011;23184;51.902;12.836;2022-11-20T03:14:26;17.75;;;8.68;;
37299;SDS011;23184;51.902;12.836;2022-11-20T03:16:52;17.15;;;9.25;;
37299;SDS011;23184;51.902;12.836;2022-11-20T03:19:17;16.13;;;9.02;;
37299;SDS011;23184;51.902;12.836;2022-11-20T03:21:43;17.05;;;8.60;;
37299;SDS011;23184;51.902;12.836;2022-11-20T03:24:08;17.60;;;9.60;;
37299;SDS011;23184;51.902;12.836;2022-11-20T03:26:34;23.75;;;10.57;;
37299;SDS011;23184;51.902;12.836;2022-11-20T03:29:01;17.17;;;9.18;;
37299;SDS011;23184;51.902;12.836;2022-11-20T03:31:29;19.35;;;9.48;;
37299;SDS011;23184;51.902;12.836;2022-11-20T03:33:57;20.10;;;10.23;;
37299;SDS011;23184;51.902;12.836;2022-11-20T03:36:24;18.50;;;8.93;;
37299;SDS011;23184;51.902;12.836;2022-11-20T03:38:50;18.15;;;9.10;;
37299;SDS011;23184;51.902;12.836;2022-11-20T03:41:19;23.95;;;10.68;;
37299;SDS011;23184;51.902;12.836;2022-11-20T03:43:49;22.92;;;10.45;;
37299;SDS011;23184;51.902;12.836;2022-11-20T03:46:16;21.95;;;10.50;;
37299;SDS011;23184;51.902;12.836;2022-11-20T03:48:42;21.20;;;9.88;;
37299;SDS011;23184;51.902;12.836;2022-11-20T03:51:15;22.75;;;10.32;;
37299;SDS011;23184;51.902;12.836;2022-11-20T03:53:46;22.92;;;10.38;;
37299;SDS011;23184;51.902;12.836;2022-11-20T03:56:13;23.45;;;10.55;;
37299;SDS011;23184;51.902;12.836;2022-11-20T03:58:41;24.38;;;10.60;;
37299;SDS011;23184;51.902;12.836;2022-11-20T04:01:07;23.42;;;10.23;;
37299;SDS011;23184;51.902;12.836;2022-11-20T04:03:38;24.88;;;11.00;;
37299;SDS011;23184;51.902;12.836;2022-11-20T04:06:12;19.23;;;9.88;;
37299;SDS011;23184;51.902;12.836;2022-11-20T04:08:42;19.67;;;9.85;;
37299;SDS011;23184;51.902;12.836;2022-11-20T04:11:12;21.00;;;10.05;;
37299;SDS011;23184;51.902;12.836;2022-11-20T04:13:45;20.13;;;9.90;;
37299;SDS011;23184;51.902;12.836;2022-11-20T04:16:13;22.83;;;10.15;;
37299;SDS011;23184;51.902;12.836;2022-11-20T04:18:39;22.20;;;11.15;;
37299;SDS011;23184;51.902;12.836;2022-11-20T04:21:04;21.08;;;9.80;;
37299;SDS011;23184;51.902;12.836;2022-11-20T04:23:31;20.35;;;10.70;;
37299;SDS011;23184;51.902;12.836;2022-11-20T04:26:00;20.98;;;9.85;;
37299;SDS011;23184;51.902;12.836;2022-11-20T04:28:28;19.20;;;10.00;;
37299;SDS011;23184;51.902;12.836;2022-11-20T04:30:53;19.17;;;10.07;;
37299;SDS011;23184;51.902;12.836;2022-11-20T04:33:19;22.27;;;11.05;;
37299;SDS011;23184;51.902;12.836;2022-11-20T04:35:44;19.63;;;9.35;;
37299;SDS011;23184;51.902;12.836;2022-11-20T04:38:12;22.67;;;10.90;;
37299;SDS011;23184;51.902;12.836;2022-11-20T04:40:38;22.38;;;11.25;;
37299;SDS011;23184;51.902;12.836;2022-11-20T04:43:04;23.23;;;10.98;;
37299;SDS011;23184;51.902;12.836;2022-11-20T04:45:29;22.38;;;11.02;;
37299;SDS011;23184;51.902;12.836;2022-11-20T04:47:55;21.75;;;10.32;;
37299;SDS011;23184;51.902;12.836;2022-11-20T04:50:20;23.42;;;11.55;;
37299;SDS011;23184;51.902;12.836;2022-11-20T04:52:46;22.08;;;10.43;;
37299;SDS011;23184;51.902;12.836;2022-11-20T04:55:11;26.33;;;10.85;;
37299;SDS011;23184;51.902;12.836;2022-11-20T04:57:37;19.38;;;9.52;;
37299;SDS011;23184;51.902;12.836;2022-11-20T05:00:03;22.92;;;11.88;;
37299;SDS011;23184;51.902;12.836;2022-11-20T05:02:30;26.33;;;12.32;;
37299;SDS011;23184;51.902;12.836;2022-11-20T05:04:56;22.25;;;10.30;;
37299;SDS011;23184;51.902;12.836;2022-11-20T05:07:22;23.77;;;10.90;;
37299;SDS011;23184;51.902;12.836;2022-11-20T05:09:47;22.40;;;10.70;;
37299;SDS011;23184;51.902;12.836;2022-11-20T05:12:13;24.63;;;11.65;;
37299;SDS011;23184;51.902;12.836;2022-11-20T05:14:39;28.10;;;11.40;;
37299;SDS011;23184;51.902;12.836;2022-11-20T05:17:04;23.63;;;11.40;;
37299;SDS011;23184;51.902;12.836;2022-11-20T05:19:30;22.20;;;11.00;;
37299;SDS011;23184;51.902;12.836;2022-11-20T05:21:55;22.45;;;11.27;;
37299;SDS011;23184;51.902;12.836;2022-11-20T05:24:21;22.33;;;11.00;;
37299;SDS011;23184;51.902;12.836;2022-11-20T05:26:47;24.42;;;11.75;;
37299;SDS011;23184;51.902;12.836;2022-11-20T05:29:12;25.90;;;12.13;;
37299;SDS011;23184;51.902;12.836;2022-11-20T05:31:38;23.85;;;11.40;;
37299;SDS011;23184;51.902;12.836;2022-11-20T05:34:05;26.38;;;12.57;;
37299;SDS011;23184;51.902;12.836;2022-11-20T05:36:31;23.00;;;10.95;;
37299;SDS011;23184;51.902;12.836;2022-11-20T05:38:57;23.58;;;11.05;;
37299;SDS011;23184;51.902;12.836;2022-11-20T05:41:22;26.05;;;11.90;;
37299;SDS011;23184;51.902;12.836;2022-11-20T05:43:48;26.27;;;11.68;;
37299;SDS011;23184;51.902;12.836;2022-11-20T05:46:16;24.63;;;12.52;;
37299;SDS011;23184;51.902;12.836;2022-11-20T05:48:43;25.52;;;12.18;;
37299;SDS011;23184;51.902;12.836;2022-11-20T05:51:10;25.45;;;13.02;;
37299;SDS011;23184;51.902;12.836;2022-11-20T05:53:38;28.25;;;13.95;;
37299;SDS011;23184;51.902;12.836;2022-11-20T05:56:05;31.42;;;13.27;;
37299;SDS011;23184;51.902;12.836;2022-11-20T05:58:33;29.67;;;15.10;;
37299;SDS011;23184;51.902;12.836;2022-11-20T06:01:09;25.95;;;13.55;;
37299;SDS011;23184;51.902;12.836;2022-11-20T06:03:37;32.80;;;15.10;;
37299;SDS011;23184;51.902;12.836;2022-11-20T06:06:04;29.13;;;12.80;;
37299;SDS011;23184;51.902;12.836;2022-11-20T06:08:31;25.92;;;12.52;;
37299;SDS011;23184;51.902;12.836;2022-11-20T06:10:57;30.38;;;14.05;;
37299;SDS011;23184;51.902;12.836;2022-11-20T06:13:23;30.75;;;13.73;;
37299;SDS011;23184;51.902;12.836;2022-11-20T06:15:49;29.75;;;14.07;;
37299;SDS011;23184;51.902;12.836;2022-11-20T06:18:16;28.13;;;14.82;;
37299;SDS011;23184;51.902;12.836;2022-11-20T06:20:42;28.95;;;14.25;;
37299;SDS011;23184;51.902;12.836;2022-11-20T06:23:08;28.42;;;13.55;;
37299;SDS011;23184;51.902;12.836;2022-11-20T06:25:37;31.33;;;14.43;;
37299;SDS011;23184;51.902;12.836;2022-11-20T06:28:06;28.95;;;13.55;;
37299;SDS011;23184;51.902;12.836;2022-11-20T06:30:32;29.88;;;14.05;;
37299;SDS011;23184;51.902;12.836;2022-11-20T06:32:57;30.25;;;14.60;;
37299;SDS011;23184;51.902;12.836;2022-11-20T06:35:23;28.02;;;14.68;;
37299;SDS011;23184;51.902;12.836;2022-11-20T06:37:49;31.13;;;14.35;;
37299;SDS011;23184;51.902;12.836;2022-11-20T06:40:14;30.48;;;14.43;;
37299;SDS011;23184;51.902;12.836;2022-11-20T06:42:40;26.58;;;13.52;;
37299;SDS011;23184;51.902;12.836;2022-11-20T06:45:05;34.13;;;15.55;;
37299;SDS011;23184;51.902;12.836;2022-11-20T06:47:31;30.85;;;14.57;;
37299;SDS011;23184;51.902;12.836;2022-11-20T06:49:57;38.65;;;16.10;;
37299;SDS011;23184;51.902;12.836;2022-11-20T06:52:22;32.47;;;14.70;;
37299;SDS011;23184;51.902;12.836;2022-11-20T06:54:48;38.00;;;15.82;;
37299;SDS011;23184;51.902;12.836;2022-11-20T06:57:13;43.35;;;16.27;;
37299;SDS011;23184;51.902;12.836;2022-11-20T06:59:39;31.38;;;15.10;;
37299;SDS011;23184;51.902;12.836;2022-11-20T07:02:05;30.95;;;14.77;;
37299;SDS011;23184;51.902;12.836;2022-11-20T07:04:31;34.72;;;15.95;;
37299;SDS011;23184;51.902;12.836;2022-11-20T07:06:56;37.38;;;15.40;;
37299;SDS011;23184;51.902;12.836;2022-11-20T07:09:22;33.92;;;16.90;;
37299;SDS011;23184;51.902;12.836;2022-11-20T07:11:47;34.15;;;14.88;;
37299;SDS011;23184;51.902;12.836;2022-11-20T07:14:13;32.97;;;15.02;;
37299;SDS011;23184;51.902;12.836;2022-11-20T07:16:38;32.15;;;15.48;;
37299;SDS011;23184;51.902;12.836;2022-11-20T07:19:04;34.75;;;16.30;;
37299;SDS011;23184;51.902;12.836;2022-11-20T07:21:29;39.58;;;17.40;;
37299;SDS011;23184;51.902;12.836;2022-11-20T07:23:55;30.52;;;15.07;;
37299;SDS011;23184;51.902;12.836;2022-11-20T07:26:20;33.35;;;15.02;;
37299;SDS011;23184;51.902;12.836;2022-11-20T07:28:46;38.17;;;17.63;;
37299;SDS011;23184;51.902;12.836;2022-11-20T07:31:12;36.88;;;16.80;;
37299;SDS011;23184;51.902;12.836;2022-11-20T07:33:38;38.42;;;16.98;;
37299;SDS011;23184;51.902;12.836;2022-11-20T07:36:03;37.35;;;16.77;;
37299;SDS011;23184;51.902;12.836;2022-11-20T07:38:30;38.13;;;16.77;;
37299;SDS011;23184;51.902;12.836;2022-11-20T07:40:56;38.03;;;15.75;;
37299;SDS011;23184;51.902;12.836;2022-11-20T07:43:28;40.85;;;16.83;;
37299;SDS011;23184;51.902;12.836;2022-11-20T07:45:55;43.95;;;17.60;;
37299;SDS011;23184;51.902;12.836;2022-11-20T07:48:21;38.53;;;16.85;;
37299;SDS011;23184;51.902;12.836;2022-11-20T07:50:47;38.20;;;17.95;;
37299;SDS011;23184;51.902;12.836;2022-11-20T07:53:12;40.88;;;17.88;;
37299;SDS011;23184;51.902;12.836;2022-11-20T07:55:39;39.53;;;17.58;;
37299;SDS011;23184;51.902;12.836;2022-11-20T07:58:04;34.05;;;16.70;;
37299;SDS011;23184;51.902;12.836;2022-11-20T08:00:30;41.60;;;18.33;;
37299;SDS011;23184;51.902;12.836;2022-11-20T08:02:56;42.67;;;19.10;;
37299;SDS011;23184;51.902;12.836;2022-11-20T08:05:21;42.70;;;17.13;;
37299;SDS011;23184;51.902;12.836;2022-11-20T08:07:47;37.50;;;16.63;;
37299;SDS011;23184;51.902;12.836;2022-11-20T08:10:13;37.60;;;17.10;;
37299;SDS011;23184;51.902;12.836;2022-11-20T08:12:58;39.45;;;17.27;;
37299;SDS011;23184;51.902;12.836;2022-11-20T08:15:47;40.42;;;18.15;;
37299;SDS011;23184;51.902;12.836;2022-11-20T08:18:15;39.63;;;17.92;;
37299;SDS011;23184;51.902;12.836;2022-11-20T08:20:40;36.38;;;17.88;;
37299;SDS011;23184;51.902;12.836;2022-11-20T08:23:06;41.10;;;19.30;;
37299;SDS011;23184;51.902;12.836;2022-11-20T08:25:33;41.67;;;18.55;;
37299;SDS011;23184;51.902;12.836;2022-11-20T08:28:00;44.55;;;20.85;;
37299;SDS011;23184;51.902;12.836;2022-11-20T08:30:28;36.60;;;17.55;;
37299;SDS011;23184;51.902;12.836;2022-11-20T08:32:54;41.13;;;19.30;;
37299;SDS011;23184;51.902;12.836;2022-11-20T08:35:20;39.47;;;18.27;;
37299;SDS011;23184;51.902;12.836;2022-11-20T08:37:47;35.70;;;16.98;;
37299;SDS011;23184;51.902;12.836;2022-11-20T08:40:13;34.40;;;16.33;;
37299;SDS011;23184;51.902;12.836;2022-11-20T08:42:48;32.97;;;14.57;;
37299;SDS011;23184;51.902;12.836;2022-11-20T08:45:15;35.80;;;16.33;;
37299;SDS011;23184;51.902;12.836;2022-11-20T08:47:42;35.55;;;15.23;;
37299;SDS011;23184;51.902;12.836;2022-11-20T08:50:08;35.05;;;16.23;;
37299;SDS011;23184;51.902;12.836;2022-11-20T08:52:35;32.60;;;15.90;;
37299;SDS011;23184;51.902;12.836;2022-11-20T08:55:01;30.15;;;14.63;;
37299;SDS011;23184;51.902;12.836;2022-11-20T08:57:27;31.75;;;15.27;;
37299;SDS011;23184;51.902;12.836;2022-11-20T08:59:52;29.90;;;16.20;;
37299;SDS011;23184;51.902;12.836;2022-11-20T09:02:18;28.60;;;14.68;;
37299;SDS011;23184;51.902;12.836;2022-11-20T09:04:43;27.27;;;14.30;;
37299;SDS011;23184;51.902;12.836;2022-11-20T09:07:09;30.13;;;15.75;;
37299;SDS011;23184;51.902;12.836;2022-11-20T09:09:35;30.90;;;15.57;;
37299;SDS011;23184;51.902;12.836;2022-11-20T09:12:00;28.95;;;15.48;;
37299;SDS011;23184;51.902;12.836;2022-11-20T09:14:26;28.92;;;14.48;;
37299;SDS011;23184;51.902;12.836;2022-11-20T09:16:54;28.20;;;13.52;;
37299;SDS011;23184;51.902;12.836;2022-11-20T09:19:20;30.85;;;15.40;;
37299;SDS011;23184;51.902;12.836;2022-11-20T09:21:46;36.03;;;17.02;;
37299;SDS011;23184;51.902;12.836;2022-11-20T09:24:11;35.05;;;16.65;;
37299;SDS011;23184;51.902;12.836;2022-11-20T09:26:37;34.08;;;15.68;;
37299;SDS011;23184;51.902;12.836;2022-11-20T09:29:02;36.45;;;16.42;;
37299;SDS011;23184;51.902;12.836;2022-11-20T09:31:28;31.83;;;15.23;;
37299;SDS011;23184;51.902;12.836;2022-11-20T09:33:53;32.45;;;15.82;;
37299;SDS011;23184;51.902;12.836;2022-11-20T09:36:19;29.15;;;15.45;;
37299;SDS011;23184;51.902;12.836;2022-11-20T09:38:45;28.08;;;13.75;;
37299;SDS011;23184;51.902;12.836;2022-11-20T09:41:30;28.55;;;14.07;;
37299;SDS011;23184;51.902;12.836;2022-11-20T09:55:02;29.60;;;14.10;;
37299;SDS011;23184;51.902;12.836;2022-11-20T09:57:37;30.35;;;15.27;;
37299;SDS011;23184;51.902;12.836;2022-11-20T10:00:05;28.17;;;13.15;;
37299;SDS011;23184;51.902;12.836;2022-11-20T10:03:12;24.00;;;12.05;;
37299;SDS011;23184;51.902;12.836;2022-11-20T10:05:52;25.23;;;13.30;;
37299;SDS011;23184;51.902;12.836;2022-11-20T10:08:21;30.08;;;13.73;;
37299;SDS011;23184;51.902;12.836;2022-11-20T10:10:52;30.88;;;14.77;;
37299;SDS011;23184;51.902;12.836;2022-11-20T10:13:49;25.88;;;13.10;;
37299;SDS011;23184;51.902;12.836;2022-11-20T10:16:42;26.95;;;13.60;;
37299;SDS011;23184;51.902;12.836;2022-11-20T10:25:13;26.50;;;12.70;;
37299;SDS011;23184;51.902;12.836;2022-11-20T10:30:44;26.20;;;12.27;;
37299;SDS011;23184;51.902;12.836;2022-11-20T10:33:17;23.65;;;11.45;;
37299;SDS011;23184;51.902;12.836;2022-11-20T10:36:07;23.88;;;12.15;;
37299;SDS011;23184;51.902;12.836;2022-11-20T10:38:37;23.55;;;11.77;;
37299;SDS011;23184;51.902;12.836;2022-11-20T10:41:06;39.17;;;14.02;;
37299;SDS011;23184;51.902;12.836;2022-11-20T10:43:51;19.65;;;9.52;;
37299;SDS011;23184;51.902;12.836;2022-11-20T10:46:26;21.17;;;9.50;;
37299;SDS011;23184;51.902;12.836;2022-11-20T10:49:02;18.65;;;9.20;;
37299;SDS011;23184;51.902;12.836;2022-11-20T11:00:05;17.60;;;8.65;;
37299;SDS011;23184;51.902;12.836;2022-11-20T11:02:44;21.10;;;9.82;;
37299;SDS011;23184;51.902;12.836;2022-11-20T11:08:16;20.70;;;9.40;;
37299;SDS011;23184;51.902;12.836;2022-11-20T11:10:54;19.63;;;9.65;;
37299;SDS011;23184;51.902;12.836;2022-11-20T11:13:32;20.10;;;9.32;;
37299;SDS011;23184;51.902;12.836;2022-11-20T11:15:58;14.85;;;7.82;;
37299;SDS011;23184;51.902;12.836;2022-11-20T11:18:27;23.10;;;9.43;;
37299;SDS011;23184;51.902;12.836;2022-11-20T11:20:55;18.70;;;9.25;;
37299;SDS011;23184;51.902;12.836;2022-11-20T11:23:32;18.08;;;9.95;;
37299;SDS011;23184;51.902;12.836;2022-11-20T11:25:58;17.67;;;8.43;;
37299;SDS011;23184;51.902;12.836;2022-11-20T11:28:25;16.55;;;8.23;;
37299;SDS011;23184;51.902;12.836;2022-11-20T11:30:52;17.33;;;8.30;;
37299;SDS011;23184;51.902;12.836;2022-11-20T11:33:29;17.50;;;9.18;;
37299;SDS011;23184;51.902;12.836;2022-11-20T11:35:57;16.75;;;8.15;;
37299;SDS011;23184;51.902;12.836;2022-11-20T11:41:01;21.05;;;9.25;;
37299;SDS011;23184;51.902;12.836;2022-11-20T11:43:32;17.40;;;8.75;;
37299;SDS011;23184;51.902;12.836;2022-11-20T11:48:59;16.90;;;8.77;;
37299;SDS011;23184;51.902;12.836;2022-11-20T11:51:32;20.27;;;9.98;;
37299;SDS011;23184;51.902;12.836;2022-11-20T11:54:27;20.88;;;10.90;;
37299;SDS011;23184;51.902;12.836;2022-11-20T11:56:58;19.45;;;10.85;;
37299;SDS011;23184;51.902;12.836;2022-11-20T11:59:41;18.60;;;9.35;;
37299;SDS011;23184;51.902;12.836;2022-11-20T12:02:24;19.05;;;8.05;;
37299;SDS011;23184;51.902;12.836;2022-11-20T12:05:27;14.10;;;7.25;;
37299;SDS011;23184;51.902;12.836;2022-11-20T12:08:05;14.95;;;7.85;;
37299;SDS011;23184;51.902;12.836;2022-11-20T12:15:49;19.48;;;9.55;;
37299;SDS011;23184;51.902;12.836;2022-11-20T12:18:16;16.63;;;7.88;;
37299;SDS011;23184;51.902;12.836;2022-11-20T12:20:50;22.23;;;9.13;;
37299;SDS011;23184;51.902;12.836;2022-11-20T12:26:20;17.17;;;9.52;;
37299;SDS011;23184;51.902;12.836;2022-11-20T12:29:07;19.67;;;8.65;;
37299;SDS011;23184;51.902;12.836;2022-11-20T12:31:48;19.00;;;9.57;;
37299;SDS011;23184;51.902;12.836;2022-11-20T12:39:40;16.27;;;9.02;;
37299;SDS011;23184;51.902;12.836;2022-11-20T12:45:14;16.00;;;8.45;;
37299;SDS011;23184;51.902;12.836;2022-11-20T13:01:40;14.80;;;8.10;;
37299;SDS011;23184;51.902;12.836;2022-11-20T13:07:13;15.52;;;8.23;;
37299;SDS011;23184;51.902;12.836;2022-11-20T13:09:41;14.80;;;8.20;;
37299;SDS011;23184;51.902;12.836;2022-11-20T13:12:28;16.95;;;8.73;;
37299;SDS011;23184;51.902;12.836;2022-11-20T13:17:37;12.80;;;7.30;;
37299;SDS011;23184;51.902;12.836;2022-11-20T13:20:17;14.35;;;7.93;;
37299;SDS011;23184;51.902;12.836;2022-11-20T13:22:44;16.77;;;9.18;;
37299;SDS011;23184;51.902;12.836;2022-11-20T13:25:45;17.20;;;8.57;;
37299;SDS011;23184;51.902;12.836;2022-11-20T13:28:05;17.33;;;7.82;;
37299;SDS011;23184;51.902;12.836;2022-11-20T13:30:52;15.50;;;7.78;;
37299;SDS011;23184;51.902;12.836;2022-11-20T13:33:23;16.35;;;8.43;;
37299;SDS011;23184;51.902;12.836;2022-11-20T13:35:55;15.65;;;8.25;;
37299;SDS011;23184;51.902;12.836;2022-11-20T13:38:25;17.33;;;9.10;;
37299;SDS011;23184;51.902;12.836;2022-11-20T13:43:21;16.92;;;8.48;;
37299;SDS011;23184;51.902;12.836;2022-11-20T13:46:01;15.70;;;7.82;;
37299;SDS011;23184;51.902;12.836;2022-11-20T13:48:32;16.67;;;7.82;;
37299;SDS011;23184;51.902;12.836;2022-11-20T13:51:04;14.88;;;7.68;;
37299;SDS011;23184;51.902;12.836;2022-11-20T14:01:52;19.05;;;9.18;;
37299;SDS011;23184;51.902;12.836;2022-11-20T14:04:20;17.33;;;9.00;;
37299;SDS011;23184;51.902;12.836;2022-11-20T14:06:54;20.60;;;9.10;;
37299;SDS011;23184;51.902;12.836;2022-11-20T14:11:53;18.63;;;9.73;;
37299;SDS011;23184;51.902;12.836;2022-11-20T14:14:20;19.63;;;9.90;;
37299;SDS011;23184;51.902;12.836;2022-11-20T14:16:47;20.13;;;9.93;;
37299;SDS011;23184;51.902;12.836;2022-11-20T14:21:46;19.05;;;9.45;;
37299;SDS011;23184;51.902;12.836;2022-11-20T14:24:12;20.70;;;10.02;;
37299;SDS011;23184;51.902;12.836;2022-11-20T14:26:41;18.27;;;8.73;;
37299;SDS011;23184;51.902;12.836;2022-11-20T14:29:18;21.25;;;9.98;;
37299;SDS011;23184;51.902;12.836;2022-11-20T14:31:46;17.65;;;9.15;;
37299;SDS011;23184;51.902;12.836;2022-11-20T14:34:17;20.23;;;10.20;;
37299;SDS011;23184;51.902;12.836;2022-11-20T14:36:46;18.83;;;9.68;;
37299;SDS011;23184;51.902;12.836;2022-11-20T14:39:12;19.85;;;10.05;;
37299;SDS011;23184;51.902;12.836;2022-11-20T14:41:52;21.05;;;9.63;;
37299;SDS011;23184;51.902;12.836;2022-11-20T14:44:19;19.70;;;10.00;;
37299;SDS011;23184;51.902;12.836;2022-11-20T14:46:48;23.67;;;10.88;;
37299;SDS011;23184;51.902;12.836;2022-11-20T14:49:15;18.35;;;10.02;;
37299;SDS011;23184;51.902;12.836;2022-11-20T14:51:41;20.52;;;10.55;;
37299;SDS011;23184;51.902;12.836;2022-11-20T14:54:17;23.52;;;12.10;;
37299;SDS011;23184;51.902;12.836;2022-11-20T14:57:44;22.00;;;10.50;;
37299;SDS011;23184;51.902;12.836;2022-11-20T14:59:49;23.67;;;11.60;;
37299;SDS011;23184;51.902;12.836;2022-11-20T15:02:15;22.70;;;10.85;;
37299;SDS011;23184;51.902;12.836;2022-11-20T15:04:48;26.50;;;12.60;;
37299;SDS011;23184;51.902;12.836;2022-11-20T15:12:31;25.23;;;11.60;;
37299;SDS011;23184;51.902;12.836;2022-11-20T15:14:58;25.95;;;11.05;;
37299;SDS011;23184;51.902;12.836;2022-11-20T15:17:25;26.80;;;12.45;;
37299;SDS011;23184;51.902;12.836;2022-11-20T15:19:51;24.80;;;12.38;;
37299;SDS011;23184;51.902;12.836;2022-11-20T15:22:18;25.00;;;11.75;;
37299;SDS011;23184;51.902;12.836;2022-11-20T15:24:44;26.08;;;12.23;;
37299;SDS011;23184;51.902;12.836;2022-11-20T15:27:10;25.40;;;12.02;;
37299;SDS011;23184;51.902;12.836;2022-11-20T15:29:36;27.35;;;11.90;;
37299;SDS011;23184;51.902;12.836;2022-11-20T15:32:01;26.02;;;12.15;;
37299;SDS011;23184;51.902;12.836;2022-11-20T15:34:27;27.65;;;14.55;;
37299;SDS011;23184;51.902;12.836;2022-11-20T15:36:53;35.05;;;14.80;;
37299;SDS011;23184;51.902;12.836;2022-11-20T15:39:19;29.48;;;14.02;;
37299;SDS011;23184;51.902;12.836;2022-11-20T15:41:45;33.13;;;14.27;;
37299;SDS011;23184;51.902;12.836;2022-11-20T15:44:11;29.88;;;13.93;;
37299;SDS011;23184;51.902;12.836;2022-11-20T15:46:37;27.58;;;12.70;;
37299;SDS011;23184;51.902;12.836;2022-11-20T15:49:10;24.17;;;12.75;;
37299;SDS011;23184;51.902;12.836;2022-11-20T15:51:39;30.00;;;13.70;;
37299;SDS011;23184;51.902;12.836;2022-11-20T15:54:15;26.38;;;12.13;;
37299;SDS011;23184;51.902;12.836;2022-11-20T15:56:45;25.85;;;11.68;;
37299;SDS011;23184;51.902;12.836;2022-11-20T15:59:12;26.45;;;11.50;;
37299;SDS011;23184;51.902;12.836;2022-11-20T16:01:39;26.52;;;11.38;;
37299;SDS011;23184;51.902;12.836;2022-11-20T16:04:09;28.90;;;14.40;;
37299;SDS011;23184;51.902;12.836;2022-11-20T16:06:40;29.85;;;12.18;;